createdAt,value
2018-07-08T00:06:14.320Z,21.60
2018-07-08T01:09:03.255Z,20.90
2018-07-08T01:24:40.378Z,20.80
2018-07-08T01:26:20.486Z,20.80
2018-07-08T01:27:41.133Z,20.60
2018-07-08T01:29:16.427Z,20.60
2018-07-08T01:49:44.995Z,20.50
2018-07-08T01:55:22.752Z,20.30
2018-07-08T14:50:25.408Z,20.70
2018-07-08T14:51:31.103Z,29.30
2018-07-08T14:52:37.516Z,29.00
2018-07-08T14:53:47.847Z,28.80
2018-07-08T14:54:53.820Z,28.70
2018-07-08T14:55:59.110Z,28.60
2018-07-08T14:57:05.335Z,28.50
2018-07-08T14:58:10.822Z,28.40
2018-07-08T14:59:15.788Z,28.30
2018-07-08T15:00:20.634Z,28.20
2018-07-08T15:01:26.620Z,28.00
2018-07-08T15:02:34.567Z,28.00
2018-07-08T15:03:39.820Z,27.90
2018-07-08T15:04:44.671Z,27.70
2018-07-08T15:05:49.636Z,27.70
2018-07-08T15:06:54.196Z,27.70
2018-07-08T15:08:00.222Z,27.60
2018-07-08T15:09:07.980Z,27.50
2018-07-08T15:11:32.678Z,27.30
2018-07-08T15:12:38.708Z,27.20
2018-07-08T15:13:46.360Z,27.20
2018-07-08T15:14:51.339Z,27.20
2018-07-08T15:15:56.181Z,27.10
2018-07-08T15:17:00.997Z,27.10
2018-07-08T15:18:06.466Z,27.00
2018-07-08T15:19:11.740Z,27.00
2018-07-08T15:20:17.641Z,27.00
2018-07-08T15:21:25.616Z,26.90
2018-07-08T15:22:33.430Z,26.90
2018-07-08T15:23:40.107Z,26.80
2018-07-08T15:24:45.698Z,26.90
2018-07-08T15:25:50.674Z,26.90
2018-07-08T15:26:56.112Z,26.80
2018-07-08T15:28:01.907Z,26.70
2018-07-08T15:29:07.644Z,26.80
2018-07-08T15:30:12.833Z,26.80
2018-07-08T15:31:20.728Z,26.70
2018-07-08T15:32:25.705Z,26.70
2018-07-08T15:33:31.204Z,26.70
2018-07-08T15:34:36.638Z,26.70
2018-07-08T15:35:42.193Z,26.70
2018-07-08T15:36:47.465Z,26.80
2018-07-08T15:39:00.218Z,26.80
2018-07-08T15:40:05.789Z,26.80
2018-07-08T15:41:11.486Z,26.70
2018-07-08T15:42:16.375Z,26.70
2018-07-08T15:43:23.105Z,26.80
2018-07-08T15:44:29.084Z,26.70
2018-07-08T15:45:34.648Z,26.70
2018-07-08T15:46:41.422Z,26.70
2018-07-08T15:47:50.696Z,26.60
2018-07-08T15:48:55.592Z,26.60
2018-07-08T15:50:01.374Z,26.60
2018-07-08T15:51:09.195Z,26.60
2018-07-08T15:52:19.888Z,26.60
2018-07-08T15:53:28.313Z,26.60
2018-07-08T15:54:33.713Z,26.60
2018-07-08T15:55:38.766Z,26.50
2018-07-08T15:56:45.320Z,26.50
2018-07-08T15:59:11.219Z,26.50
2018-07-08T16:00:21.229Z,26.50
2018-07-08T16:01:30.298Z,26.40
2018-07-08T16:02:47.065Z,26.50
2018-07-08T16:03:51.808Z,26.40
2018-07-08T16:04:57.024Z,26.40
2018-07-08T16:06:03.482Z,26.40
2018-07-08T16:07:09.851Z,26.40
2018-07-08T16:08:15.692Z,26.40
2018-07-08T16:09:22.666Z,26.30
2018-07-08T16:10:28.475Z,26.40
2018-07-08T16:11:33.633Z,26.40
2018-07-08T16:12:39.173Z,26.40
2018-07-08T16:13:44.196Z,26.40
2018-07-08T16:14:50.392Z,26.40
2018-07-08T16:15:55.220Z,26.40
2018-07-08T16:16:59.729Z,26.40
2018-07-08T16:18:04.271Z,26.40
2018-07-08T16:19:08.902Z,26.40
2018-07-08T16:20:13.642Z,26.40
2018-07-08T16:21:20.745Z,26.30
2018-07-08T16:22:27.245Z,26.30
2018-07-08T16:23:32.197Z,26.30
2018-07-08T16:24:38.513Z,26.30
2018-07-08T16:25:43.327Z,26.30
2018-07-08T16:26:48.859Z,26.30
2018-07-08T16:27:54.108Z,26.30
2018-07-08T16:29:00.096Z,26.30
2018-07-08T16:30:05.040Z,26.30
2018-07-08T16:31:11.740Z,26.30
2018-07-08T16:32:17.475Z,26.30
2018-07-08T16:33:22.384Z,26.30
2018-07-08T16:34:28.212Z,26.20
2018-07-08T16:35:34.346Z,26.20
2018-07-08T16:36:39.378Z,26.20
2018-07-08T16:37:45.202Z,26.20
2018-07-08T16:38:51.000Z,26.20
2018-07-08T16:39:58.182Z,26.20
2018-07-08T16:41:03.102Z,26.20
2018-07-08T16:42:07.809Z,26.20
2018-07-08T16:43:13.964Z,26.20
2018-07-08T16:44:20.094Z,26.10
2018-07-08T16:45:26.340Z,26.10
2018-07-08T16:46:31.441Z,26.10
2018-07-08T16:47:37.797Z,26.10
2018-07-08T16:48:43.418Z,26.10
2018-07-08T16:49:51.686Z,26.00
2018-07-08T16:50:57.360Z,26.00
2018-07-08T16:52:02.258Z,26.00
2018-07-08T16:53:08.269Z,26.00
2018-07-08T16:54:12.984Z,26.00
2018-07-08T16:55:18.110Z,26.00
2018-07-08T16:56:23.250Z,26.00
2018-07-08T16:57:29.326Z,26.00
2018-07-08T16:58:36.721Z,26.00
2018-07-08T16:59:42.821Z,26.00
2018-07-08T17:00:48.210Z,25.90
2018-07-08T17:01:55.726Z,25.90
2018-07-08T17:03:01.839Z,26.00
2018-07-08T17:04:08.372Z,25.90
2018-07-08T17:05:14.800Z,25.90
2018-07-08T17:06:20.402Z,25.80
2018-07-08T17:07:26.452Z,25.80
2018-07-08T17:09:46.696Z,25.80
2018-07-08T17:10:51.500Z,25.80
2018-07-08T17:11:57.749Z,25.80
2018-07-08T17:13:03.227Z,25.80
2018-07-08T17:14:08.841Z,25.80
2018-07-08T17:15:18.164Z,25.80
2018-07-08T17:16:24.826Z,25.80
2018-07-08T17:17:32.204Z,25.70
2018-07-08T17:18:37.452Z,25.70
2018-07-08T17:19:44.449Z,25.70
2018-07-08T17:20:52.620Z,25.70
2018-07-08T17:21:59.222Z,25.70
2018-07-08T17:23:05.063Z,25.70
2018-07-08T17:24:11.213Z,25.70
2018-07-08T17:25:16.548Z,25.70
2018-07-08T17:26:22.253Z,25.70
2018-07-08T17:27:28.637Z,25.70
2018-07-08T17:28:34.526Z,25.60
2018-07-08T17:29:40.647Z,25.60
2018-07-08T17:30:49.174Z,25.60
2018-07-08T17:31:57.808Z,25.60
2018-07-08T17:33:05.182Z,25.60
2018-07-08T17:34:10.781Z,25.60
2018-07-08T17:35:15.830Z,25.60
2018-07-08T17:36:21.390Z,25.60
2018-07-08T17:37:28.537Z,25.60
2018-07-08T17:38:35.721Z,25.50
2018-07-08T17:39:48.533Z,25.50
2018-07-08T17:40:55.898Z,25.50
2018-07-08T17:42:03.505Z,25.50
2018-07-08T17:43:08.341Z,25.50
2018-07-08T17:44:13.872Z,25.50
2018-07-08T17:45:19.844Z,25.50
2018-07-08T17:46:25.379Z,25.50
2018-07-08T17:47:32.091Z,25.40
2018-07-08T17:48:37.120Z,25.40
2018-07-08T17:49:42.762Z,25.40
2018-07-08T17:50:48.466Z,25.40
2018-07-08T17:51:53.497Z,25.40
2018-07-08T17:53:02.237Z,25.40
2018-07-08T17:54:09.208Z,25.30
2018-07-08T17:55:14.229Z,25.30
2018-07-08T17:56:20.103Z,25.30
2018-07-08T17:57:25.264Z,25.30
2018-07-08T17:58:30.380Z,25.30
2018-07-08T17:59:35.223Z,25.30
2018-07-08T18:00:40.207Z,25.30
2018-07-08T18:01:45.201Z,25.30
2018-07-08T18:02:51.212Z,25.30
2018-07-08T18:03:56.774Z,25.20
2018-07-08T18:05:02.453Z,25.30
2018-07-08T18:06:07.642Z,25.30
2018-07-08T18:07:12.469Z,25.20
2018-07-08T18:08:17.795Z,25.20
2018-07-08T18:09:23.819Z,25.20
2018-07-08T18:10:28.801Z,25.20
2018-07-08T18:11:35.428Z,25.20
2018-07-08T18:12:43.645Z,25.20
2018-07-08T18:13:49.337Z,25.20
2018-07-08T18:14:55.503Z,25.10
2018-07-08T18:16:00.369Z,25.20
2018-07-08T18:17:06.699Z,25.10
2018-07-08T18:18:11.440Z,25.10
2018-07-08T18:19:16.748Z,25.10
2018-07-08T18:20:24.089Z,25.10
2018-07-08T18:21:29.615Z,25.10
2018-07-08T18:22:35.701Z,25.10
2018-07-08T18:23:42.365Z,25.00
2018-07-08T18:24:49.934Z,25.10
2018-07-08T18:25:55.255Z,25.00
2018-07-08T18:27:00.745Z,25.00
2018-07-08T18:28:05.848Z,25.00
2018-07-08T18:29:12.279Z,25.00
2018-07-08T18:30:17.000Z,25.00
2018-07-08T18:31:22.839Z,25.00
2018-07-08T18:32:28.101Z,25.00
2018-07-08T18:33:34.115Z,25.00
2018-07-08T18:34:39.451Z,25.00
2018-07-08T18:35:44.543Z,25.00
2018-07-08T18:36:50.660Z,25.00
2018-07-08T18:37:55.635Z,25.00
2018-07-08T18:39:01.251Z,24.90
2018-07-08T18:40:07.391Z,24.90
2018-07-08T18:41:14.312Z,24.90
2018-07-08T18:42:20.621Z,24.90
2018-07-08T18:43:26.153Z,24.90
2018-07-08T18:44:32.178Z,24.90
2018-07-08T18:45:37.199Z,24.80
2018-07-08T18:46:43.832Z,24.90
2018-07-08T18:47:50.456Z,24.80
2018-07-08T18:48:56.644Z,24.80
2018-07-08T18:50:03.023Z,24.80
2018-07-08T18:51:09.731Z,24.80
2018-07-08T18:52:15.485Z,24.80
2018-07-08T18:53:22.221Z,24.80
2018-07-08T18:54:27.629Z,24.80
2018-07-08T18:55:33.629Z,24.80
2018-07-08T18:56:40.209Z,24.70
2018-07-08T18:57:45.327Z,24.80
2018-07-08T18:58:49.956Z,24.70
2018-07-08T18:59:54.705Z,24.70
2018-07-08T19:01:05.664Z,24.70
2018-07-08T19:02:15.184Z,24.70
2018-07-08T19:03:23.237Z,24.70
2018-07-08T19:04:43.658Z,24.70
2018-07-08T19:05:53.488Z,24.70
2018-07-08T19:06:59.293Z,24.70
2018-07-08T19:08:17.553Z,24.70
2018-07-08T19:09:23.326Z,24.70
2018-07-08T19:10:35.196Z,24.60
2018-07-08T19:11:41.658Z,24.60
2018-07-08T19:12:48.090Z,24.60
2018-07-08T19:13:54.811Z,24.70
2018-07-08T19:15:01.685Z,24.60
2018-07-08T19:16:07.210Z,24.60
2018-07-08T19:17:12.614Z,24.50
2018-07-08T19:18:19.006Z,24.50
2018-07-08T19:19:28.293Z,24.50
2018-07-08T19:20:34.192Z,24.50
2018-07-08T19:21:40.453Z,24.50
2018-07-08T19:22:46.136Z,24.50
2018-07-08T19:23:51.367Z,24.50
2018-07-08T19:24:57.096Z,24.50
2018-07-08T19:26:04.031Z,24.40
2018-07-08T19:27:09.159Z,24.40
2018-07-08T19:28:16.958Z,24.40
2018-07-08T19:29:22.652Z,24.40
2018-07-08T19:30:27.631Z,24.40
2018-07-08T19:31:34.496Z,24.40
2018-07-08T19:32:40.182Z,24.40
2018-07-08T19:33:46.631Z,24.40
2018-07-08T19:34:53.306Z,24.40
2018-07-08T19:35:58.744Z,24.40
2018-07-08T19:37:04.598Z,24.40
2018-07-08T19:38:09.936Z,24.30
2018-07-08T19:39:17.083Z,24.30
2018-07-08T19:40:24.623Z,24.30
2018-07-08T19:41:29.226Z,24.30
2018-07-08T19:42:34.178Z,24.30
2018-07-08T19:43:39.040Z,24.30
2018-07-08T19:44:43.854Z,24.30
2018-07-08T19:45:48.776Z,24.30
2018-07-08T19:46:53.406Z,24.30
2018-07-08T19:47:58.491Z,24.30
2018-07-08T19:50:09.192Z,24.20
2018-07-08T19:51:14.212Z,24.20
2018-07-08T19:52:19.301Z,24.20
2018-07-08T19:53:24.650Z,24.20
2018-07-08T19:54:29.376Z,24.20
2018-07-08T19:55:34.583Z,24.20
2018-07-08T19:56:39.367Z,24.20
2018-07-08T19:57:44.295Z,24.10
2018-07-08T19:58:49.309Z,24.20
2018-07-08T19:59:55.150Z,24.10
2018-07-08T20:00:59.998Z,24.10
2018-07-08T20:02:05.219Z,24.10
2018-07-08T20:03:10.112Z,24.10
2018-07-08T20:04:15.660Z,24.10
2018-07-08T20:05:21.687Z,24.10
2018-07-08T20:06:37.364Z,24.00
2018-07-08T20:07:42.544Z,24.00
2018-07-08T20:08:49.546Z,24.00
2018-07-08T20:09:56.359Z,24.00
2018-07-08T20:11:01.561Z,24.00
2018-07-08T20:12:06.390Z,24.00
2018-07-08T20:13:11.288Z,24.00
2018-07-08T20:14:16.208Z,24.00
2018-07-08T20:15:22.916Z,24.00
2018-07-08T20:16:28.455Z,24.00
2018-07-08T20:17:33.892Z,23.90
2018-07-08T20:18:39.211Z,23.90
2018-07-08T20:19:46.393Z,23.90
2018-07-08T20:20:51.365Z,23.90
2018-07-08T20:21:56.326Z,23.90
2018-07-08T20:23:02.309Z,23.90
2018-07-08T20:24:09.340Z,23.90
2018-07-08T20:25:18.809Z,23.90
2018-07-08T20:26:23.913Z,23.90
2018-07-08T20:27:29.200Z,23.80
2018-07-08T20:28:34.631Z,23.80
2018-07-08T20:29:39.565Z,23.80
2018-07-08T20:30:44.978Z,23.80
2018-07-08T20:31:51.209Z,23.80
2018-07-08T20:32:56.220Z,23.80
2018-07-08T20:34:01.813Z,23.80
2018-07-08T20:35:07.934Z,23.80
2018-07-08T20:36:14.109Z,23.70
2018-07-08T20:37:20.636Z,23.70
2018-07-08T20:38:30.761Z,23.70
2018-07-08T20:39:36.193Z,23.70
2018-07-08T20:40:42.229Z,23.70
2018-07-08T20:41:47.651Z,23.70
2018-07-08T20:42:53.788Z,23.70
2018-07-08T20:44:02.643Z,23.70
2018-07-08T20:45:08.478Z,23.60
2018-07-08T20:46:13.457Z,23.60
2018-07-08T20:47:19.069Z,23.60
2018-07-08T20:48:25.859Z,23.60
2018-07-08T20:49:32.761Z,23.60
2018-07-08T20:50:41.372Z,23.60
2018-07-08T20:51:46.658Z,23.60
2018-07-08T20:52:53.083Z,23.60
2018-07-08T20:53:58.112Z,23.60
2018-07-08T20:55:05.330Z,23.50
2018-07-08T20:56:10.093Z,23.50
2018-07-08T20:57:16.125Z,23.50
2018-07-08T20:58:22.584Z,23.50
2018-07-08T20:59:28.217Z,23.50
2018-07-08T21:00:36.265Z,23.50
2018-07-08T21:01:45.623Z,23.50
2018-07-08T21:02:54.662Z,23.50
2018-07-08T21:04:00.825Z,23.40
2018-07-08T21:05:06.887Z,23.40
2018-07-08T21:06:12.660Z,23.40
2018-07-08T21:07:17.432Z,23.40
2018-07-08T21:08:23.768Z,23.40
2018-07-08T21:09:29.180Z,23.40
2018-07-08T21:10:35.395Z,23.40
2018-07-08T21:11:41.226Z,23.40
2018-07-08T21:12:55.095Z,23.40
2018-07-08T21:15:15.344Z,23.30
2018-07-08T21:16:23.214Z,23.30
2018-07-08T21:17:29.971Z,23.30
2018-07-08T21:18:39.111Z,23.30
2018-07-08T21:19:47.196Z,23.30
2018-07-08T21:20:53.300Z,23.30
2018-07-08T21:21:59.386Z,23.30
2018-07-08T21:23:05.088Z,23.30
2018-07-08T21:24:10.700Z,23.30
2018-07-08T21:25:18.044Z,23.30
2018-07-08T21:26:23.788Z,23.30
2018-07-08T21:27:28.631Z,23.30
2018-07-08T21:28:34.260Z,23.30
2018-07-08T21:29:41.387Z,23.20
2018-07-08T21:30:47.067Z,23.20
2018-07-08T21:31:54.657Z,23.20
2018-07-08T21:32:59.756Z,23.20
2018-07-08T21:34:06.174Z,23.20
2018-07-08T21:35:11.813Z,23.20
2018-07-08T21:36:16.269Z,23.20
2018-07-08T21:37:21.598Z,23.10
2018-07-08T21:38:27.860Z,23.20
2018-07-08T21:39:32.501Z,23.10
2018-07-08T21:40:37.511Z,23.10
2018-07-08T21:41:42.841Z,23.10
2018-07-08T21:42:47.445Z,23.10
2018-07-08T21:43:52.419Z,23.10
2018-07-08T21:44:57.797Z,23.10
2018-07-08T21:46:03.290Z,23.00
2018-07-08T21:47:10.105Z,23.00
2018-07-08T21:48:14.848Z,23.00
2018-07-08T21:49:19.844Z,23.00
2018-07-08T21:50:25.381Z,23.00
2018-07-08T21:51:29.994Z,23.00
2018-07-08T21:52:35.220Z,22.90
2018-07-08T21:53:41.835Z,23.00
2018-07-08T21:54:47.829Z,22.90
2018-07-08T21:55:52.918Z,22.90
2018-07-08T21:56:58.188Z,22.90
2018-07-08T21:58:02.726Z,22.90
2018-07-08T21:59:09.337Z,22.90
2018-07-08T22:00:16.453Z,22.90
2018-07-08T22:01:23.769Z,22.80
2018-07-08T22:02:29.574Z,22.80
2018-07-08T22:03:34.742Z,22.80
2018-07-08T22:04:40.270Z,22.80
2018-07-08T22:05:46.220Z,22.80
2018-07-08T22:06:51.279Z,22.70
2018-07-08T22:08:01.759Z,22.70
2018-07-08T22:09:08.092Z,22.70
2018-07-08T22:10:14.055Z,22.70
2018-07-08T22:11:20.214Z,22.70
2018-07-08T22:12:24.941Z,22.70
2018-07-08T22:13:31.217Z,22.70
2018-07-08T22:14:38.094Z,22.70
2018-07-08T22:15:43.000Z,22.60
2018-07-08T22:16:49.207Z,22.60
2018-07-08T22:17:55.926Z,22.60
2018-07-08T22:19:00.635Z,22.60
2018-07-08T22:20:06.651Z,22.60
2018-07-08T22:21:11.568Z,22.50
2018-07-08T22:22:17.818Z,22.60
2018-07-08T22:23:23.220Z,22.50
2018-07-08T22:24:29.626Z,22.50
2018-07-08T22:25:35.281Z,22.50
2018-07-08T22:26:39.967Z,22.50
2018-07-08T22:27:45.285Z,22.50
2018-07-08T22:28:50.353Z,22.50
2018-07-08T22:29:55.452Z,22.50
2018-07-08T22:31:00.499Z,22.50
2018-07-08T22:32:07.213Z,22.50
2018-07-08T22:33:13.935Z,22.50
2018-07-08T22:34:21.532Z,22.40
2018-07-08T22:35:27.625Z,22.40
2018-07-08T22:36:32.344Z,22.40
2018-07-08T22:37:38.112Z,22.40
2018-07-08T22:38:44.200Z,22.40
2018-07-08T22:39:50.629Z,22.40
2018-07-08T22:40:56.196Z,22.40
2018-07-08T22:42:01.739Z,22.30
2018-07-08T22:43:06.928Z,22.30
2018-07-08T22:44:13.167Z,22.30
2018-07-08T22:45:18.109Z,22.30
2018-07-08T22:46:25.378Z,22.30
2018-07-08T22:47:33.372Z,22.30
2018-07-08T22:48:41.770Z,22.30
2018-07-08T22:49:46.486Z,22.20
2018-07-08T22:50:52.186Z,22.20
2018-07-08T22:51:57.719Z,22.20
2018-07-08T22:53:03.580Z,22.20
2018-07-08T22:54:08.133Z,22.20
2018-07-08T22:55:13.718Z,22.20
2018-07-08T22:56:20.197Z,22.20
2018-07-08T22:57:24.861Z,22.20
2018-07-08T22:58:29.830Z,22.20
2018-07-08T22:59:44.082Z,22.20
2018-07-08T23:01:00.511Z,22.20
2018-07-08T23:02:16.326Z,22.20
2018-07-08T23:05:32.443Z,22.20
2018-07-08T23:06:37.234Z,22.20
2018-07-08T23:08:48.345Z,22.10
2018-07-08T23:09:53.653Z,22.10
2018-07-08T23:10:58.877Z,22.10
2018-07-08T23:12:04.217Z,22.10
2018-07-08T23:13:10.280Z,22.10
2018-07-08T23:14:15.688Z,22.00
2018-07-08T23:15:20.268Z,22.00
2018-07-08T23:16:25.855Z,22.00
2018-07-08T23:17:31.182Z,22.00
2018-07-08T23:18:36.826Z,22.00
2018-07-08T23:19:41.495Z,21.90
2018-07-08T23:20:46.816Z,21.90
2018-07-08T23:21:51.450Z,21.90
2018-07-08T23:22:58.998Z,21.90
2018-07-08T23:24:05.079Z,21.90
2018-07-08T23:25:10.759Z,21.80
2018-07-08T23:26:16.057Z,21.80
2018-07-08T23:27:21.084Z,21.80
2018-07-08T23:28:25.618Z,21.80
2018-07-08T23:29:31.077Z,21.80
2018-07-08T23:30:36.401Z,21.80
2018-07-08T23:31:43.235Z,21.80
2018-07-08T23:32:48.212Z,21.80
2018-07-08T23:33:53.624Z,21.80
2018-07-08T23:34:58.571Z,21.70
2018-07-08T23:36:03.974Z,21.70
2018-07-08T23:37:08.727Z,21.70
2018-07-08T23:38:13.547Z,21.70
2018-07-08T23:39:18.060Z,21.70
2018-07-08T23:40:23.408Z,21.70
2018-07-08T23:41:29.480Z,21.70
2018-07-08T23:42:34.971Z,21.70
2018-07-08T23:43:41.268Z,21.70
2018-07-08T23:44:45.912Z,21.70
2018-07-08T23:46:57.064Z,21.70
2018-07-08T23:48:02.408Z,21.70
2018-07-08T23:49:09.942Z,21.60
2018-07-08T23:50:15.371Z,21.60
2018-07-08T23:51:21.112Z,21.60
2018-07-08T23:53:32.364Z,21.60
2018-07-08T23:54:37.356Z,21.60
2018-07-08T23:55:42.314Z,21.60
2018-07-08T23:56:47.404Z,21.60
2018-07-08T23:57:54.142Z,21.50
2018-07-08T23:58:59.527Z,21.50
